Lake Creek, Texas
Current Conditions -  °F | °C
As of 9:55 AM on Saturday 20 Dec 2014 (Local Time) from KPRX Reporting Station
Overcast Overcast  
Wind Chill: 41°   Ceiling: 600
Heat Index: 45°   Visibility: 7mi
Dew Point: 41°   Wind: 7mph
Humidity: 87%   Direction: 100°E
Pressure: 30.27"   Gusts: NA
Location:  33.45°N, 95.59°W
Report Text: KPRX 201555Z 10006KT 7SM OVC006 07/05 A3027 RMK AO1
Loading
Personal Weather Stations






























Interactive Weather Map New forecast layout! Learn more

10-Day Weather Forecast

Advertisements
Track Severe Weather on mobile